Aviation Digital Data Service (ADDS)

Output produced by TAFs form (0027 UTC 27 May 2017)
found at http://www.aviationweather.gov/adds/tafs/
 
METAR text: RJCW 270000Z 10015KT 9999 FEW005 SCT015 11/07 Q1010
Conditions at: RJCW (WAKKANAI AIRPORT, JP) observed 0000 UTC 27 May 2017
Temperature: 11.0°C (52°F)
Dewpoint: 7.0°C (45°F) [RH = 76%]
Pressure (altimeter): 29.82 inches Hg (1010.0 mb)
Winds: from the E (100 degrees) at 17 MPH (15 knots; 7.8 m/s)
Visibility: 6 or more miles (10+ km)
Ceiling: at least 12,000 feet AGL
Clouds: few clouds at 500 feet AGL
scattered clouds at 1500 feet AGL
Weather: no significant weather observed at this time